createdAt,value
2022-12-04T00:02:08.502Z,6.40
2022-12-04T00:04:35.356Z,7.22
2022-12-04T00:07:02.521Z,6.55
2022-12-04T00:09:29.200Z,6.60
2022-12-04T00:11:55.988Z,6.53
2022-12-04T00:14:22.718Z,7.18
2022-12-04T00:16:49.440Z,6.70
2022-12-04T00:19:16.739Z,6.47
2022-12-04T00:21:43.519Z,7.43
2022-12-04T00:24:10.278Z,7.10
2022-12-04T00:26:37.029Z,6.90
2022-12-04T00:29:03.943Z,6.95
2022-12-04T00:31:31.534Z,7.40
2022-12-04T00:34:00.356Z,7.70
2022-12-04T00:36:29.643Z,6.72
2022-12-04T00:38:58.492Z,6.25
2022-12-04T00:41:26.344Z,7.20
2022-12-04T00:43:53.129Z,7.10
2022-12-04T00:46:20.426Z,7.28
2022-12-04T00:48:47.384Z,7.13
2022-12-04T00:51:22.079Z,7.70
2022-12-04T00:53:48.896Z,7.55
2022-12-04T00:56:19.316Z,8.00
2022-12-04T00:58:46.461Z,7.45
2022-12-04T01:01:15.992Z,8.13
2022-12-04T01:03:43.576Z,7.47
2022-12-04T01:06:25.813Z,7.25
2022-12-04T01:08:54.072Z,7.13
2022-12-04T01:11:22.648Z,7.50
2022-12-04T01:13:49.611Z,7.53
2022-12-04T01:16:33.355Z,6.97
2022-12-04T01:19:01.885Z,7.68
2022-12-04T01:21:29.040Z,6.95
2022-12-04T01:23:55.951Z,8.15
2022-12-04T01:26:22.673Z,7.28
2022-12-04T01:28:49.354Z,7.85
2022-12-04T01:31:18.715Z,7.57
2022-12-04T01:33:45.978Z,7.80
2022-12-04T01:36:23.585Z,7.35
2022-12-04T01:38:50.835Z,6.95
2022-12-04T01:41:21.571Z,7.43
2022-12-04T01:44:13.204Z,6.80
2022-12-04T01:46:41.641Z,7.93
2022-12-04T01:49:17.543Z,7.63
2022-12-04T01:51:49.927Z,7.38
2022-12-04T01:54:24.767Z,7.40
2022-12-04T01:56:59.922Z,7.13
2022-12-04T01:59:30.842Z,6.63
2022-12-04T02:02:04.480Z,6.85
2022-12-04T02:04:31.994Z,6.75
2022-12-04T02:06:58.812Z,7.57
2022-12-04T02:09:26.968Z,7.63
2022-12-04T02:12:35.871Z,7.30
2022-12-04T02:15:10.317Z,7.05
2022-12-04T02:17:41.702Z,7.70
2022-12-04T02:20:14.182Z,6.60
2022-12-04T02:22:53.094Z,6.88
2022-12-04T02:25:49.347Z,6.90
2022-12-04T02:28:28.622Z,6.53
2022-12-04T02:31:01.337Z,7.00
2022-12-04T02:33:41.362Z,6.68
2022-12-04T02:36:13.274Z,6.85
2022-12-04T02:38:48.821Z,7.35
2022-12-04T02:41:45.042Z,6.60
2022-12-04T02:44:29.854Z,6.25
2022-12-04T02:47:00.974Z,6.15
2022-12-04T02:49:35.175Z,7.15
2022-12-04T02:52:08.093Z,7.20
2022-12-04T02:54:40.174Z,6.57
2022-12-04T02:57:13.456Z,6.70
2022-12-04T02:59:43.545Z,6.63
2022-12-04T03:02:25.451Z,6.57
2022-12-04T03:04:56.086Z,7.47
2022-12-04T03:10:06.915Z,6.72
2022-12-04T03:13:13.690Z,6.13
2022-12-04T03:15:58.281Z,6.70
2022-12-04T03:18:37.853Z,6.45
2022-12-04T03:21:10.815Z,6.45
2022-12-04T03:24:12.316Z,6.90
2022-12-04T03:26:41.800Z,6.28
2022-12-04T03:29:48.918Z,6.43
2022-12-04T03:32:31.703Z,6.60
2022-12-04T03:35:02.208Z,6.10
2022-12-04T03:40:09.310Z,6.93
2022-12-04T03:42:42.146Z,6.60
2022-12-04T03:45:29.221Z,6.00
2022-12-04T03:48:06.714Z,6.28
2022-12-04T03:50:38.598Z,6.93
2022-12-04T03:53:23.735Z,6.20
2022-12-04T03:56:07.492Z,6.28
2022-12-04T03:58:37.991Z,6.15
2022-12-04T04:03:43.582Z,6.82
2022-12-04T04:06:16.667Z,5.95
2022-12-04T04:08:48.489Z,6.13
2022-12-04T04:11:26.522Z,6.15
2022-12-04T04:14:05.674Z,6.50
2022-12-04T04:16:35.527Z,6.55
2022-12-04T04:19:03.611Z,6.50
2022-12-04T04:21:34.699Z,6.20
2022-12-04T04:24:03.268Z,6.13
2022-12-04T04:26:35.506Z,6.97
2022-12-04T04:29:02.876Z,5.93
2022-12-04T04:32:13.927Z,6.20
2022-12-04T04:35:18.469Z,6.38
2022-12-04T04:37:57.975Z,5.80
2022-12-04T04:40:38.613Z,6.00
2022-12-04T04:43:11.279Z,5.82
2022-12-04T04:45:47.679Z,6.03
2022-12-04T04:48:26.406Z,5.72
2022-12-04T04:50:54.494Z,6.20
2022-12-04T04:53:28.370Z,5.97
2022-12-04T04:55:55.412Z,5.78
2022-12-04T04:58:22.467Z,6.28
2022-12-04T05:01:07.936Z,6.13
2022-12-04T05:03:35.034Z,6.15
2022-12-04T05:06:01.986Z,6.15
2022-12-04T05:08:28.760Z,6.35
2022-12-04T05:10:55.556Z,6.13
2022-12-04T05:13:22.839Z,6.07
2022-12-04T05:16:01.349Z,6.30
2022-12-04T05:18:28.694Z,6.10
2022-12-04T05:20:55.477Z,5.85
2022-12-04T05:23:22.690Z,6.22
2022-12-04T05:25:49.723Z,6.30
2022-12-04T05:28:16.897Z,6.15
2022-12-04T05:30:43.630Z,5.57
2022-12-04T05:33:10.739Z,6.65
2022-12-04T05:35:37.420Z,5.97
2022-12-04T05:38:06.019Z,5.75
2022-12-04T05:40:32.729Z,5.93
2022-12-04T05:43:00.195Z,6.22
2022-12-04T05:45:26.852Z,5.45
2022-12-04T05:47:53.497Z,6.20
2022-12-04T05:50:20.313Z,6.45
2022-12-04T05:52:47.297Z,5.82
2022-12-04T05:55:13.920Z,5.63
2022-12-04T05:57:40.719Z,6.07
2022-12-04T06:00:08.212Z,5.72
2022-12-04T06:02:35.154Z,6.03
2022-12-04T06:05:01.940Z,6.00
2022-12-04T06:07:28.694Z,5.70
2022-12-04T06:09:56.048Z,6.32
2022-12-04T06:12:23.004Z,6.38
2022-12-04T06:14:49.808Z,6.20
2022-12-04T06:17:16.738Z,6.45
2022-12-04T06:19:43.566Z,5.82
2022-12-04T06:22:10.271Z,5.53
2022-12-04T06:24:36.948Z,5.68
2022-12-04T06:27:26.596Z,5.85
2022-12-04T06:29:50.368Z,6.40
2022-12-04T06:32:21.429Z,7.03
2022-12-04T06:34:52.903Z,7.25
2022-12-04T06:37:20.083Z,6.50
2022-12-04T06:39:46.832Z,6.70
2022-12-04T06:42:13.666Z,6.72
2022-12-04T06:44:40.488Z,6.50
2022-12-04T06:47:08.109Z,6.68
2022-12-04T06:49:35.011Z,7.28
2022-12-04T06:52:01.802Z,6.28
2022-12-04T06:54:28.492Z,6.25
2022-12-04T06:56:55.470Z,7.25
2022-12-04T06:59:22.198Z,6.95
2022-12-04T07:01:48.925Z,6.93
2022-12-04T07:04:15.668Z,7.00
2022-12-04T07:06:42.688Z,6.45
2022-12-04T07:09:15.224Z,7.00
2022-12-04T07:11:43.538Z,6.75
2022-12-04T07:14:11.105Z,6.70
2022-12-04T07:16:41.472Z,6.25
2022-12-04T07:19:13.896Z,6.40
2022-12-04T07:21:41.709Z,6.68
2022-12-04T07:24:09.716Z,6.75
2022-12-04T07:26:36.386Z,6.30
2022-12-04T07:29:03.049Z,7.03
2022-12-04T07:31:30.243Z,6.82
2022-12-04T07:33:57.672Z,6.97
2022-12-04T07:36:25.959Z,7.38
2022-12-04T07:38:54.399Z,7.20
2022-12-04T07:41:21.538Z,7.80
2022-12-04T07:43:48.219Z,8.13
2022-12-04T07:46:21.279Z,7.22
2022-12-04T07:48:48.181Z,7.40
2022-12-04T07:51:18.073Z,7.55
2022-12-04T07:53:45.591Z,7.82
2022-12-04T07:56:13.528Z,8.70
2022-12-04T07:58:42.102Z,8.10
2022-12-04T08:01:26.984Z,7.63
2022-12-04T08:03:56.611Z,7.95
2022-12-04T08:06:25.218Z,8.65
2022-12-04T08:08:52.924Z,8.82
2022-12-04T08:11:25.010Z,8.90
2022-12-04T08:13:59.472Z,8.40
2022-12-04T08:16:28.109Z,8.10
2022-12-04T08:18:55.769Z,8.13
2022-12-04T08:21:24.929Z,7.70
2022-12-04T08:23:53.509Z,7.13
2022-12-04T08:26:21.995Z,7.68
2022-12-04T08:28:49.019Z,7.30
2022-12-04T08:31:21.910Z,6.30
2022-12-04T08:33:50.520Z,6.18
2022-12-04T08:36:20.754Z,5.95
2022-12-04T08:38:48.620Z,6.03
2022-12-04T08:41:18.381Z,5.75
2022-12-04T08:43:45.331Z,5.47
2022-12-04T08:46:14.849Z,5.18
2022-12-04T08:48:42.203Z,5.87
2022-12-04T08:51:20.678Z,5.63
2022-12-04T08:53:47.570Z,5.13
2022-12-04T08:56:14.555Z,6.15
2022-12-04T08:58:41.486Z,5.65
2022-12-04T09:01:11.091Z,5.38
2022-12-04T09:03:38.100Z,4.80
2022-12-04T09:06:06.312Z,5.75
2022-12-04T09:08:33.606Z,5.40
2022-12-04T09:11:17.497Z,6.13
2022-12-04T09:13:45.179Z,5.82
2022-12-04T09:16:19.254Z,5.28
2022-12-04T09:18:46.469Z,5.82
2022-12-04T09:21:15.331Z,6.03
2022-12-04T09:23:42.854Z,5.45
2022-12-04T09:26:19.206Z,5.47
2022-12-04T09:28:46.552Z,5.50
2022-12-04T09:31:13.411Z,4.80
2022-12-04T09:33:40.114Z,6.28
2022-12-04T09:36:07.277Z,5.25
2022-12-04T09:38:34.221Z,5.75
2022-12-04T09:41:36.154Z,5.40
2022-12-04T09:44:21.649Z,5.10
2022-12-04T09:46:59.999Z,5.68
2022-12-04T09:49:35.561Z,4.82
2022-12-04T09:52:09.312Z,5.57
2022-12-04T09:54:42.702Z,4.82
2022-12-04T09:57:42.693Z,5.43
2022-12-04T10:00:14.573Z,5.25
2022-12-04T10:02:45.590Z,5.65
2022-12-04T10:05:19.631Z,4.80
2022-12-04T10:08:01.361Z,4.75
2022-12-04T10:10:39.532Z,5.30
2022-12-04T10:13:59.958Z,5.35
2022-12-04T10:17:04.037Z,5.22
2022-12-04T10:19:39.720Z,5.03
2022-12-04T10:22:25.145Z,5.00
2022-12-04T10:24:55.172Z,5.00
2022-12-04T10:27:44.378Z,4.90
2022-12-04T10:30:22.313Z,5.75
2022-12-04T10:32:56.403Z,5.13
2022-12-04T10:35:27.361Z,4.90
2022-12-04T10:37:58.834Z,4.32
2022-12-04T10:40:32.675Z,4.88
2022-12-04T10:43:28.444Z,4.85
2022-12-04T10:45:55.909Z,4.95
2022-12-04T10:48:36.528Z,4.72
2022-12-04T10:53:33.517Z,5.22
2022-12-04T10:56:14.912Z,4.45
2022-12-04T10:58:41.872Z,4.65
2022-12-04T11:01:12.290Z,4.72
2022-12-04T11:03:39.778Z,5.07
2022-12-04T11:06:10.151Z,4.28
2022-12-04T11:08:41.312Z,5.40
2022-12-04T11:11:16.176Z,4.47
2022-12-04T11:13:43.220Z,4.30
2022-12-04T11:16:34.321Z,4.13
2022-12-04T11:19:01.113Z,4.30
2022-12-04T11:21:30.774Z,4.30
2022-12-04T11:23:58.179Z,4.25
2022-12-04T11:26:37.507Z,4.65
2022-12-04T11:29:07.637Z,4.88
2022-12-04T11:31:34.461Z,4.10
2022-12-04T11:34:08.931Z,4.43
2022-12-04T11:36:40.288Z,4.13
2022-12-04T11:39:14.205Z,3.75
2022-12-04T11:41:42.000Z,3.80
2022-12-04T11:44:29.845Z,3.70
2022-12-04T11:46:59.569Z,3.42
2022-12-04T11:49:27.439Z,4.10
2022-12-04T11:52:12.575Z,3.85
2022-12-04T11:55:07.401Z,3.92
2022-12-04T11:57:37.161Z,4.25
2022-12-04T12:00:16.457Z,3.60
2022-12-04T12:03:25.144Z,3.50
2022-12-04T12:06:07.576Z,3.78
2022-12-04T12:08:46.171Z,3.92
2022-12-04T12:11:26.329Z,3.83
2022-12-04T12:14:07.582Z,3.63
2022-12-04T12:19:40.070Z,3.15
2022-12-04T12:22:25.163Z,3.60
2022-12-04T12:24:59.963Z,3.33
2022-12-04T12:27:50.113Z,3.17
2022-12-04T12:30:22.082Z,3.25
2022-12-04T12:33:10.373Z,3.30
2022-12-04T12:36:06.592Z,3.30
2022-12-04T12:38:47.015Z,3.13
2022-12-04T12:41:28.176Z,3.35
2022-12-04T12:44:21.170Z,3.03
2022-12-04T12:46:52.877Z,3.30
2022-12-04T12:49:35.307Z,3.10
2022-12-04T12:52:15.308Z,2.88
2022-12-04T12:55:23.667Z,3.00
2022-12-04T12:58:04.860Z,3.58
2022-12-04T13:00:37.178Z,3.28
2022-12-04T13:03:12.302Z,4.10
2022-12-04T13:05:46.935Z,3.80
2022-12-04T13:08:30.300Z,3.92
2022-12-04T13:11:12.608Z,4.40
2022-12-04T13:13:48.470Z,4.45
2022-12-04T13:16:21.678Z,4.60
2022-12-04T13:18:55.060Z,4.50
2022-12-04T13:21:57.251Z,4.80
2022-12-04T13:24:48.995Z,4.47
2022-12-04T13:27:37.516Z,4.53
2022-12-04T13:30:23.417Z,4.57
2022-12-04T13:33:01.248Z,5.32
2022-12-04T13:36:01.884Z,5.28
2022-12-04T13:39:03.602Z,4.93
2022-12-04T13:41:35.748Z,5.50
2022-12-04T13:44:07.084Z,5.55
2022-12-04T13:46:39.454Z,4.97
2022-12-04T13:49:18.197Z,4.57
2022-12-04T13:51:46.562Z,4.78
2022-12-04T13:54:13.184Z,5.43
2022-12-04T13:56:45.074Z,5.20
2022-12-04T13:59:26.987Z,4.93
2022-12-04T14:02:07.732Z,5.22
2022-12-04T14:04:46.877Z,5.57
2022-12-04T14:07:35.802Z,4.60
2022-12-04T14:10:23.722Z,5.68
2022-12-04T14:13:15.483Z,5.03
2022-12-04T14:15:42.374Z,5.45
2022-12-04T14:18:12.198Z,5.07
2022-12-04T14:20:40.593Z,4.93
2022-12-04T14:23:34.057Z,5.10
2022-12-04T14:26:00.931Z,5.45
2022-12-04T14:28:31.553Z,5.10
2022-12-04T14:33:49.811Z,4.53
2022-12-04T14:36:20.388Z,5.30
2022-12-04T14:41:25.570Z,5.40
2022-12-04T14:43:53.724Z,4.82
2022-12-04T14:46:41.355Z,4.88
2022-12-04T14:49:42.438Z,5.13
2022-12-04T14:52:30.202Z,4.57
2022-12-04T14:55:24.825Z,5.32
2022-12-04T14:58:15.971Z,5.10
2022-12-04T15:00:50.230Z,5.13
2022-12-04T15:03:17.029Z,5.57
2022-12-04T15:05:44.986Z,5.38
2022-12-04T15:08:13.919Z,5.40
2022-12-04T15:10:48.469Z,4.63
2022-12-04T15:13:31.652Z,5.45
2022-12-04T15:16:07.868Z,4.80
2022-12-04T15:18:39.433Z,4.57
2022-12-04T15:21:10.605Z,4.55
2022-12-04T15:23:40.726Z,4.93
2022-12-04T15:26:22.091Z,4.97
2022-12-04T15:29:00.643Z,4.63
2022-12-04T15:31:34.481Z,4.75
2022-12-04T15:34:06.322Z,5.43
2022-12-04T15:37:01.375Z,4.50
2022-12-04T15:39:49.079Z,4.68
2022-12-04T15:42:17.405Z,4.47
2022-12-04T15:45:00.522Z,5.03
2022-12-04T15:47:33.131Z,4.28
2022-12-04T15:50:16.396Z,4.75
2022-12-04T15:52:54.070Z,4.03
2022-12-04T15:55:23.854Z,4.32
2022-12-04T15:57:57.667Z,4.40
2022-12-04T16:00:30.242Z,4.28
2022-12-04T16:02:58.053Z,4.13
2022-12-04T16:05:30.621Z,4.25
2022-12-04T16:08:21.894Z,5.10
2022-12-04T16:11:05.292Z,4.05
2022-12-04T16:13:38.430Z,4.57
2022-12-04T16:16:08.276Z,4.10
2022-12-04T16:18:35.265Z,4.78
2022-12-04T16:21:02.095Z,4.40
2022-12-04T16:23:28.969Z,4.72
2022-12-04T16:25:57.034Z,4.18
2022-12-04T16:28:24.094Z,4.10
2022-12-04T16:30:51.813Z,4.22
2022-12-04T16:33:18.972Z,4.32
2022-12-04T16:35:45.698Z,4.13
2022-12-04T16:38:15.484Z,4.50
2022-12-04T16:40:43.273Z,3.90
2022-12-04T16:43:13.626Z,4.45
2022-12-04T16:45:45.457Z,4.60
2022-12-04T16:48:12.326Z,4.30
2022-12-04T16:50:39.078Z,4.07
2022-12-04T16:53:05.778Z,3.78
2022-12-04T16:55:39.782Z,3.85
2022-12-04T16:58:07.033Z,3.75
2022-12-04T17:00:56.869Z,3.40
2022-12-04T17:03:31.888Z,4.20
2022-12-04T17:06:00.222Z,4.30
2022-12-04T17:08:28.116Z,4.05
2022-12-04T17:10:55.764Z,3.97
2022-12-04T17:13:23.204Z,3.53
2022-12-04T17:15:50.018Z,3.92
2022-12-04T17:18:21.121Z,4.22
2022-12-04T17:20:48.656Z,3.75
2022-12-04T17:23:15.416Z,3.78
2022-12-04T17:25:42.162Z,3.58
2022-12-04T17:28:09.053Z,3.28
2022-12-04T17:30:36.469Z,4.28
2022-12-04T17:33:04.433Z,3.90
2022-12-04T17:35:31.263Z,3.97
2022-12-04T17:38:06.586Z,4.03
2022-12-04T17:40:36.451Z,4.78
2022-12-04T17:43:03.271Z,3.53
2022-12-04T17:45:30.419Z,3.58
2022-12-04T17:47:57.083Z,3.75
2022-12-04T17:50:48.343Z,3.88
2022-12-04T17:53:37.488Z,4.00
2022-12-04T17:56:06.919Z,4.00
2022-12-04T17:58:37.966Z,4.45
2022-12-04T18:01:09.828Z,4.05
2022-12-04T18:03:37.841Z,3.75
2022-12-04T18:06:19.074Z,3.58
2022-12-04T18:08:50.106Z,4.20
2022-12-04T18:11:19.272Z,3.25
2022-12-04T18:13:46.950Z,3.80
2022-12-04T18:16:14.080Z,3.45
2022-12-04T18:18:40.928Z,3.47
2022-12-04T18:21:12.075Z,3.47
2022-12-04T18:23:40.006Z,3.47
2022-12-04T18:26:06.895Z,3.45
2022-12-04T18:28:34.817Z,3.63
2022-12-04T18:31:06.744Z,3.20
2022-12-04T18:33:36.192Z,3.75
2022-12-04T18:36:04.569Z,3.40
2022-12-04T18:38:32.426Z,3.40
2022-12-04T18:41:04.226Z,3.72
2022-12-04T18:43:34.305Z,3.72
2022-12-04T18:46:07.285Z,3.60
2022-12-04T18:48:36.872Z,3.72
2022-12-04T18:51:26.535Z,3.90
2022-12-04T18:53:55.992Z,3.65
2022-12-04T18:56:23.278Z,3.83
2022-12-04T18:58:50.454Z,3.03
2022-12-04T19:01:19.885Z,3.10
2022-12-04T19:03:47.987Z,3.92
2022-12-04T19:06:14.966Z,3.38
2022-12-04T19:08:43.424Z,3.50
2022-12-04T19:11:15.577Z,3.97
2022-12-04T19:13:43.044Z,3.35
2022-12-04T19:16:15.207Z,3.53
2022-12-04T19:18:42.865Z,3.58
2022-12-04T19:21:09.571Z,3.75
2022-12-04T19:23:36.401Z,3.17
2022-12-04T19:26:03.331Z,3.78
2022-12-04T19:28:30.671Z,3.50
2022-12-04T19:30:57.687Z,3.83
2022-12-04T19:33:25.393Z,3.30
2022-12-04T19:36:03.905Z,3.53
2022-12-04T19:38:31.789Z,2.88
2022-12-04T19:41:12.606Z,3.20
2022-12-04T19:43:41.595Z,3.15
2022-12-04T19:46:10.118Z,3.65
2022-12-04T19:48:37.540Z,3.25
2022-12-04T19:51:10.825Z,3.35
2022-12-04T19:53:41.142Z,3.80
2022-12-04T19:56:16.552Z,2.83
2022-12-04T19:58:43.473Z,3.83
2022-12-04T20:01:16.397Z,3.97
2022-12-04T20:03:43.187Z,3.35
2022-12-04T20:06:13.366Z,3.78
2022-12-04T20:08:41.358Z,4.03
2022-12-04T20:11:11.457Z,3.45
2022-12-04T20:13:39.143Z,3.55
2022-12-04T20:16:08.551Z,3.90
2022-12-04T20:18:37.405Z,3.75
2022-12-04T20:21:04.918Z,3.75
2022-12-04T20:23:31.728Z,3.83
2022-12-04T20:26:04.658Z,3.35
2022-12-04T20:28:31.718Z,3.45
2022-12-04T20:30:59.101Z,3.60
2022-12-04T20:33:26.179Z,3.60
2022-12-04T20:35:52.987Z,3.45
2022-12-04T20:38:19.755Z,3.80
2022-12-04T20:40:46.608Z,3.60
2022-12-04T20:43:13.338Z,3.92
2022-12-04T20:45:40.083Z,3.50
2022-12-04T20:48:06.877Z,4.05
2022-12-04T20:50:33.640Z,3.60
2022-12-04T20:53:00.335Z,4.20
2022-12-04T20:55:27.259Z,3.60
2022-12-04T20:57:53.831Z,3.50
2022-12-04T21:00:20.606Z,3.83
2022-12-04T21:02:47.487Z,3.88
2022-12-04T21:18:41.426Z,3.75
2022-12-04T21:21:08.454Z,3.53
2022-12-04T21:23:35.219Z,3.88
2022-12-04T21:26:02.162Z,3.47
2022-12-04T21:28:28.892Z,3.42
2022-12-04T21:31:01.586Z,3.50
2022-12-04T21:36:10.293Z,3.30
2022-12-04T21:38:39.631Z,3.78
2022-12-04T21:41:08.034Z,3.53
2022-12-04T21:43:36.749Z,3.58
2022-12-04T21:46:09.565Z,3.38
2022-12-04T21:48:36.565Z,3.60
2022-12-04T21:51:21.264Z,4.00
2022-12-04T21:53:54.106Z,3.60
2022-12-04T21:56:22.289Z,4.05
2022-12-04T21:58:49.032Z,3.92
2022-12-04T22:01:17.657Z,3.65
2022-12-04T22:03:44.618Z,4.10
2022-12-04T22:06:11.592Z,3.72
2022-12-04T22:08:40.162Z,4.00
2022-12-04T22:11:11.721Z,3.35
2022-12-04T22:13:39.230Z,3.42
2022-12-04T22:16:10.256Z,3.72
2022-12-04T22:18:37.531Z,3.60
2022-12-04T22:21:07.349Z,3.22
2022-12-04T22:23:34.219Z,4.05
2022-12-04T22:26:15.957Z,3.60
2022-12-04T22:28:42.950Z,3.03
2022-12-04T22:31:17.360Z,3.67
2022-12-04T22:33:47.706Z,3.50
2022-12-04T22:36:17.066Z,3.63
2022-12-04T22:39:06.025Z,3.72
2022-12-04T22:41:30.807Z,2.92
2022-12-04T22:43:57.509Z,3.35
2022-12-04T22:46:24.231Z,3.50
2022-12-04T22:48:50.985Z,3.60
2022-12-04T22:51:20.505Z,3.10
2022-12-04T22:53:53.093Z,3.53
2022-12-04T22:56:22.699Z,3.03
2022-12-04T22:58:50.224Z,3.40
2022-12-04T23:01:29.569Z,3.50
2022-12-04T23:03:57.344Z,3.80
2022-12-04T23:06:26.450Z,2.97
2022-12-04T23:08:58.806Z,3.15
2022-12-04T23:11:27.227Z,3.03
2022-12-04T23:13:56.652Z,4.03
2022-12-04T23:16:24.400Z,3.45
2022-12-04T23:18:51.757Z,3.45
2022-12-04T23:21:20.015Z,3.38
2022-12-04T23:23:48.127Z,3.08
2022-12-04T23:26:18.612Z,3.40
2022-12-04T23:31:12.670Z,3.92
2022-12-04T23:33:40.839Z,3.35
2022-12-04T23:36:09.596Z,3.75
2022-12-04T23:38:37.919Z,3.58
2022-12-04T23:41:06.964Z,3.50
2022-12-04T23:43:34.750Z,2.70
2022-12-04T23:46:05.764Z,3.22
2022-12-04T23:48:36.092Z,3.47
2022-12-04T23:51:03.025Z,3.10
2022-12-04T23:53:29.797Z,3.40
2022-12-04T23:56:06.269Z,3.45
2022-12-04T23:58:34.476Z,3.13
